sensor_id;sensor_type;location;lat;lon;timestamp;pressure;altitude;pressure_sealevel;temperature;humidity
59391;BME280;53405;57.012;40.984;2023-02-18T00:00:33;100438.63;;;-6.08;82.75
59391;BME280;53405;57.012;40.984;2023-02-18T00:03:26;100435.47;;;-5.94;82.98
59391;BME280;53405;57.012;40.984;2023-02-18T00:06:18;100422.66;;;-5.94;82.69
59391;BME280;53405;57.012;40.984;2023-02-18T00:09:09;100419.16;;;-5.93;82.62
59391;BME280;53405;57.012;40.984;2023-02-18T00:11:57;100425.38;;;-5.97;82.65
59391;BME280;53405;57.012;40.984;2023-02-18T00:14:48;100417.84;;;-6.02;82.87
59391;BME280;53405;57.012;40.984;2023-02-18T00:17:36;100423.63;;;-5.96;82.68
59391;BME280;53405;57.012;40.984;2023-02-18T00:20:27;100413.44;;;-5.98;82.63
59391;BME280;53405;57.012;40.984;2023-02-18T00:23:14;100394.97;;;-6.06;82.67
59391;BME280;53405;57.012;40.984;2023-02-18T00:26:20;100402.66;;;-6.06;82.65
59391;BME280;53405;57.012;40.984;2023-02-18T00:29:12;100373.00;;;-6.13;83.06
59391;BME280;53405;57.012;40.984;2023-02-18T00:32:06;100390.94;;;-5.93;82.28
59391;BME280;53405;57.012;40.984;2023-02-18T00:34:59;100381.06;;;-6.01;82.11
59391;BME280;53405;57.012;40.984;2023-02-18T00:39:04;100378.19;;;-5.94;82.44
59391;BME280;53405;57.012;40.984;2023-02-18T00:41:58;100368.78;;;-5.94;82.40
59391;BME280;53405;57.012;40.984;2023-02-18T00:44:55;100342.28;;;-6.15;82.60
59391;BME280;53405;57.012;40.984;2023-02-18T00:47:42;100353.75;;;-6.02;82.79
59391;BME280;53405;57.012;40.984;2023-02-18T00:50:30;100344.91;;;-5.96;82.90
59391;BME280;53405;57.012;40.984;2023-02-18T00:53:17;100361.28;;;-5.78;83.11
59391;BME280;53405;57.012;40.984;2023-02-18T00:56:06;100358.59;;;-5.75;82.59
59391;BME280;53405;57.012;40.984;2023-02-18T00:58:54;100365.03;;;-5.66;82.73
59391;BME280;53405;57.012;40.984;2023-02-18T01:01:41;100356.66;;;-5.70;82.85
59391;BME280;53405;57.012;40.984;2023-02-18T01:04:29;100331.19;;;-5.74;82.73
59391;BME280;53405;57.012;40.984;2023-02-18T01:07:19;100347.47;;;-5.55;82.55
59391;BME280;53405;57.012;40.984;2023-02-18T01:10:07;100321.22;;;-5.62;82.38
59391;BME280;53405;57.012;40.984;2023-02-18T01:12:58;100336.91;;;-5.49;82.52
59391;BME280;53405;57.012;40.984;2023-02-18T01:15:45;100331.72;;;-5.47;82.70
59391;BME280;53405;57.012;40.984;2023-02-18T01:18:33;100334.28;;;-5.47;82.05
59391;BME280;53405;57.012;40.984;2023-02-18T01:21:23;100336.63;;;-5.82;80.47
59391;BME280;53405;57.012;40.984;2023-02-18T01:24:12;100313.75;;;-6.28;80.89
59391;BME280;53405;57.012;40.984;2023-02-18T01:27:01;100326.63;;;-6.50;81.47
59391;BME280;53405;57.012;40.984;2023-02-18T01:29:49;100327.16;;;-6.64;82.19
59391;BME280;53405;57.012;40.984;2023-02-18T01:32:36;100306.53;;;-6.83;82.78
59391;BME280;53405;57.012;40.984;2023-02-18T01:35:26;100326.56;;;-6.70;82.93
59391;BME280;53405;57.012;40.984;2023-02-18T01:38:21;100313.56;;;-6.66;83.54
59391;BME280;53405;57.012;40.984;2023-02-18T01:41:19;100314.72;;;-6.73;82.25
59391;BME280;53405;57.012;40.984;2023-02-18T01:47:22;100305.84;;;-6.86;82.53
59391;BME280;53405;57.012;40.984;2023-02-18T01:50:13;100297.72;;;-6.98;82.69
59391;BME280;53405;57.012;40.984;2023-02-18T01:53:17;100297.44;;;-7.12;82.57
59391;BME280;53405;57.012;40.984;2023-02-18T01:56:13;100290.19;;;-7.24;82.77
59391;BME280;53405;57.012;40.984;2023-02-18T01:59:12;100284.97;;;-7.45;83.03
59391;BME280;53405;57.012;40.984;2023-02-18T02:02:01;100291.88;;;-7.47;82.98
59391;BME280;53405;57.012;40.984;2023-02-18T02:04:52;100273.69;;;-7.63;83.71
59391;BME280;53405;57.012;40.984;2023-02-18T02:07:47;100283.91;;;-7.63;82.92
59391;BME280;53405;57.012;40.984;2023-02-18T02:11:15;100291.41;;;-7.58;83.18
59391;BME280;53405;57.012;40.984;2023-02-18T02:14:21;100279.41;;;-7.80;83.13
59391;BME280;53405;57.012;40.984;2023-02-18T02:27:05;100292.06;;;-8.01;82.95
59391;BME280;53405;57.012;40.984;2023-02-18T02:40:48;100284.34;;;-7.99;82.73
59391;BME280;53405;57.012;40.984;2023-02-18T02:46:34;100277.53;;;-8.00;83.03
59391;BME280;53405;57.012;40.984;2023-02-18T02:49:48;100277.28;;;-7.92;82.87
59391;BME280;53405;57.012;40.984;2023-02-18T02:52:46;100271.44;;;-7.96;83.08
59391;BME280;53405;57.012;40.984;2023-02-18T02:55:39;100259.75;;;-8.03;83.13
59391;BME280;53405;57.012;40.984;2023-02-18T02:58:31;100255.31;;;-7.98;82.93
59391;BME280;53405;57.012;40.984;2023-02-18T03:11:12;100251.25;;;-8.04;83.44
59391;BME280;53405;57.012;40.984;2023-02-18T03:17:24;100230.50;;;-8.20;83.75
59391;BME280;53405;57.012;40.984;2023-02-18T03:20:32;100227.91;;;-8.18;83.93
59391;BME280;53405;57.012;40.984;2023-02-18T03:23:39;100244.50;;;-8.06;83.62
59391;BME280;53405;57.012;40.984;2023-02-18T03:26:39;100224.34;;;-8.14;83.74
59391;BME280;53405;57.012;40.984;2023-02-18T03:29:33;100226.34;;;-7.99;83.83
59391;BME280;53405;57.012;40.984;2023-02-18T03:32:42;100231.88;;;-7.86;83.31
59391;BME280;53405;57.012;40.984;2023-02-18T03:35:34;100227.69;;;-7.88;83.28
59391;BME280;53405;57.012;40.984;2023-02-18T03:41:26;100227.09;;;-7.71;83.43
59391;BME280;53405;57.012;40.984;2023-02-18T03:44:17;100216.69;;;-7.67;83.25
59391;BME280;53405;57.012;40.984;2023-02-18T03:47:08;100205.84;;;-7.73;82.87
59391;BME280;53405;57.012;40.984;2023-02-18T03:49:55;100222.66;;;-7.66;82.98
59391;BME280;53405;57.012;40.984;2023-02-18T03:52:43;100212.00;;;-7.79;83.03
59391;BME280;53405;57.012;40.984;2023-02-18T03:55:34;100203.19;;;-7.94;83.41
59391;BME280;53405;57.012;40.984;2023-02-18T03:58:22;100203.69;;;-7.84;83.47
59391;BME280;53405;57.012;40.984;2023-02-18T04:01:09;100207.47;;;-7.94;83.04
59391;BME280;53405;57.012;40.984;2023-02-18T04:03:57;100198.81;;;-8.15;83.82
59391;BME280;53405;57.012;40.984;2023-02-18T04:06:45;100174.75;;;-8.33;84.04
59391;BME280;53405;57.012;40.984;2023-02-18T04:09:35;100204.94;;;-8.20;83.76
59391;BME280;53405;57.012;40.984;2023-02-18T04:12:23;100191.75;;;-8.32;83.99
59391;BME280;53405;57.012;40.984;2023-02-18T04:15:13;100201.84;;;-8.29;84.46
59391;BME280;53405;57.012;40.984;2023-02-18T04:18:03;100200.94;;;-8.27;84.73
59391;BME280;53405;57.012;40.984;2023-02-18T04:20:51;100180.78;;;-8.36;83.92
59391;BME280;53405;57.012;40.984;2023-02-18T04:23:41;100189.03;;;-8.28;84.29
59391;BME280;53405;57.012;40.984;2023-02-18T04:26:32;100189.88;;;-8.27;84.02
59391;BME280;53405;57.012;40.984;2023-02-18T04:29:25;100185.44;;;-8.22;84.55
59391;BME280;53405;57.012;40.984;2023-02-18T04:32:13;100176.78;;;-8.18;84.13
59391;BME280;53405;57.012;40.984;2023-02-18T04:35:06;100183.06;;;-8.03;83.59
59391;BME280;53405;57.012;40.984;2023-02-18T04:37:57;100155.66;;;-8.23;83.74
59391;BME280;53405;57.012;40.984;2023-02-18T04:40:45;100186.16;;;-7.95;83.58
59391;BME280;53405;57.012;40.984;2023-02-18T04:43:35;100191.22;;;-7.93;83.34
59391;BME280;53405;57.012;40.984;2023-02-18T04:46:28;100180.41;;;-8.00;83.33
59391;BME280;53405;57.012;40.984;2023-02-18T04:49:15;100178.00;;;-8.05;82.96
59391;BME280;53405;57.012;40.984;2023-02-18T04:52:08;100176.38;;;-8.07;84.13
59391;BME280;53405;57.012;40.984;2023-02-18T04:54:55;100170.56;;;-8.11;83.22
59391;BME280;53405;57.012;40.984;2023-02-18T04:57:43;100170.72;;;-8.15;83.29
59391;BME280;53405;57.012;40.984;2023-02-18T05:00:33;100163.16;;;-8.19;84.13
59391;BME280;53405;57.012;40.984;2023-02-18T05:03:30;100169.69;;;-8.10;83.02
59391;BME280;53405;57.012;40.984;2023-02-18T05:06:25;100160.94;;;-8.04;83.35
59391;BME280;53405;57.012;40.984;2023-02-18T05:09:20;100159.13;;;-8.01;82.88
59391;BME280;53405;57.012;40.984;2023-02-18T05:12:14;100163.03;;;-7.92;82.30
59391;BME280;53405;57.012;40.984;2023-02-18T05:15:05;100161.69;;;-8.01;82.18
59391;BME280;53405;57.012;40.984;2023-02-18T05:17:53;100163.53;;;-8.06;82.89
59391;BME280;53405;57.012;40.984;2023-02-18T05:20:45;100157.50;;;-8.03;82.82
59391;BME280;53405;57.012;40.984;2023-02-18T05:23:37;100149.00;;;-8.04;82.08
59391;BME280;53405;57.012;40.984;2023-02-18T05:26:29;100148.16;;;-8.04;82.24
59391;BME280;53405;57.012;40.984;2023-02-18T05:29:17;100156.84;;;-8.08;82.37
59391;BME280;53405;57.012;40.984;2023-02-18T05:33:06;100144.94;;;-8.09;83.26
59391;BME280;53405;57.012;40.984;2023-02-18T05:36:17;100141.56;;;-8.10;82.94
59391;BME280;53405;57.012;40.984;2023-02-18T05:39:10;100131.50;;;-8.14;82.78
59391;BME280;53405;57.012;40.984;2023-02-18T05:41:58;100120.44;;;-8.15;84.40
59391;BME280;53405;57.012;40.984;2023-02-18T05:44:46;100126.59;;;-7.97;82.88
59391;BME280;53405;57.012;40.984;2023-02-18T05:47:57;100122.84;;;-7.88;82.90
59391;BME280;53405;57.012;40.984;2023-02-18T05:50:55;100126.97;;;-7.84;82.95
59391;BME280;53405;57.012;40.984;2023-02-18T05:53:57;100111.16;;;-7.94;82.47
59391;BME280;53405;57.012;40.984;2023-02-18T05:56:52;100085.06;;;-8.26;82.72
59391;BME280;53405;57.012;40.984;2023-02-18T05:59:42;100109.97;;;-8.09;82.94
59391;BME280;53405;57.012;40.984;2023-02-18T06:02:31;100121.59;;;-8.00;82.79
59391;BME280;53405;57.012;40.984;2023-02-18T06:05:26;100110.22;;;-7.91;82.65
59391;BME280;53405;57.012;40.984;2023-02-18T06:08:26;100090.69;;;-7.94;82.60
59391;BME280;53405;57.012;40.984;2023-02-18T06:11:15;100086.22;;;-7.89;82.56
59391;BME280;53405;57.012;40.984;2023-02-18T06:14:06;100098.72;;;-7.81;81.84
59391;BME280;53405;57.012;40.984;2023-02-18T06:16:57;100104.84;;;-7.85;82.53
59391;BME280;53405;57.012;40.984;2023-02-18T06:19:47;100098.59;;;-7.78;82.68
59391;BME280;53405;57.012;40.984;2023-02-18T06:22:37;100082.72;;;-7.86;82.02
59391;BME280;53405;57.012;40.984;2023-02-18T06:25:39;100078.13;;;-8.00;82.11
59391;BME280;53405;57.012;40.984;2023-02-18T06:28:32;100065.47;;;-8.03;82.80
59391;BME280;53405;57.012;40.984;2023-02-18T06:31:19;100069.41;;;-7.94;82.49
59391;BME280;53405;57.012;40.984;2023-02-18T06:34:10;100081.72;;;-7.82;82.27
59391;BME280;53405;57.012;40.984;2023-02-18T06:37:03;100068.22;;;-7.86;82.39
59391;BME280;53405;57.012;40.984;2023-02-18T06:39:54;100070.13;;;-7.69;83.52
59391;BME280;53405;57.012;40.984;2023-02-18T06:42:48;100074.38;;;-7.68;81.95
59391;BME280;53405;57.012;40.984;2023-02-18T06:45:40;100072.75;;;-7.70;82.53
59391;BME280;53405;57.012;40.984;2023-02-18T06:48:28;100075.88;;;-7.64;82.23
59391;BME280;53405;57.012;40.984;2023-02-18T06:51:16;100072.97;;;-7.76;83.32
59391;BME280;53405;57.012;40.984;2023-02-18T06:54:21;100066.72;;;-7.47;82.55
59391;BME280;53405;57.012;40.984;2023-02-18T06:57:20;100065.34;;;-7.34;82.06
59391;BME280;53405;57.012;40.984;2023-02-18T07:00:13;100048.00;;;-7.27;81.94
59391;BME280;53405;57.012;40.984;2023-02-18T07:03:16;100045.69;;;-7.13;81.83
59391;BME280;53405;57.012;40.984;2023-02-18T07:06:06;100047.25;;;-7.09;81.35
59391;BME280;53405;57.012;40.984;2023-02-18T07:08:54;100038.72;;;-7.09;81.23
59391;BME280;53405;57.012;40.984;2023-02-18T07:11:41;100045.19;;;-7.00;81.76
59391;BME280;53405;57.012;40.984;2023-02-18T07:14:29;100027.25;;;-7.00;80.87
59391;BME280;53405;57.012;40.984;2023-02-18T07:17:24;100028.75;;;-6.95;81.67
59391;BME280;53405;57.012;40.984;2023-02-18T07:20:20;100027.50;;;-6.86;81.00
59391;BME280;53405;57.012;40.984;2023-02-18T07:23:20;100016.97;;;-6.80;80.72
59391;BME280;53405;57.012;40.984;2023-02-18T07:26:13;100018.84;;;-6.83;80.74
59391;BME280;53405;57.012;40.984;2023-02-18T07:29:03;100016.50;;;-6.88;81.41
59391;BME280;53405;57.012;40.984;2023-02-18T07:31:51;99989.28;;;-6.91;81.40
59391;BME280;53405;57.012;40.984;2023-02-18T07:34:38;100008.34;;;-6.77;81.27
59391;BME280;53405;57.012;40.984;2023-02-18T07:37:29;100002.53;;;-6.81;81.00
59391;BME280;53405;57.012;40.984;2023-02-18T07:40:19;99993.19;;;-6.82;84.19
59391;BME280;53405;57.012;40.984;2023-02-18T07:43:06;99995.91;;;-6.66;81.93
59391;BME280;53405;57.012;40.984;2023-02-18T07:45:58;99989.75;;;-6.62;81.08
59391;BME280;53405;57.012;40.984;2023-02-18T07:48:53;99966.41;;;-6.75;81.04
59391;BME280;53405;57.012;40.984;2023-02-18T07:52:02;99981.22;;;-6.62;80.90
59391;BME280;53405;57.012;40.984;2023-02-18T07:54:54;99953.22;;;-6.86;81.06
59391;BME280;53405;57.012;40.984;2023-02-18T07:58:13;99959.41;;;-6.71;81.52
59391;BME280;53405;57.012;40.984;2023-02-18T08:01:11;99968.69;;;-6.49;81.11
59391;BME280;53405;57.012;40.984;2023-02-18T08:04:10;99955.53;;;-6.61;82.20
59391;BME280;53405;57.012;40.984;2023-02-18T08:06:58;99965.69;;;-6.40;81.86
59391;BME280;53405;57.012;40.984;2023-02-18T08:09:53;99944.66;;;-6.47;80.89
59391;BME280;53405;57.012;40.984;2023-02-18T08:12:43;99943.81;;;-6.47;81.17
59391;BME280;53405;57.012;40.984;2023-02-18T08:15:34;99940.28;;;-6.45;81.01
59391;BME280;53405;57.012;40.984;2023-02-18T08:18:23;99933.31;;;-6.60;81.00
59391;BME280;53405;57.012;40.984;2023-02-18T08:21:12;99936.50;;;-6.55;81.43
59391;BME280;53405;57.012;40.984;2023-02-18T08:24:00;99921.19;;;-6.57;81.62
59391;BME280;53405;57.012;40.984;2023-02-18T08:26:48;99925.69;;;-6.43;81.69
59391;BME280;53405;57.012;40.984;2023-02-18T08:29:46;99928.56;;;-6.31;81.60
59391;BME280;53405;57.012;40.984;2023-02-18T08:32:34;99911.19;;;-6.44;81.70
59391;BME280;53405;57.012;40.984;2023-02-18T08:35:21;99922.19;;;-6.23;81.68
59391;BME280;53405;57.012;40.984;2023-02-18T08:38:09;99917.06;;;-6.23;81.62
59391;BME280;53405;57.012;40.984;2023-02-18T08:41:02;99905.41;;;-6.30;81.25
59391;BME280;53405;57.012;40.984;2023-02-18T08:43:50;99907.66;;;-6.41;81.85
59391;BME280;53405;57.012;40.984;2023-02-18T08:46:37;99902.41;;;-6.38;81.67
59391;BME280;53405;57.012;40.984;2023-02-18T08:49:25;99894.84;;;-6.41;82.00
59391;BME280;53405;57.012;40.984;2023-02-18T08:52:13;99899.56;;;-6.32;82.03
59391;BME280;53405;57.012;40.984;2023-02-18T08:55:03;99907.34;;;-6.16;81.49
59391;BME280;53405;57.012;40.984;2023-02-18T08:57:51;99885.59;;;-6.09;81.53
59391;BME280;53405;57.012;40.984;2023-02-18T09:00:40;99899.19;;;-5.89;81.56
59391;BME280;53405;57.012;40.984;2023-02-18T09:03:27;99886.22;;;-5.86;80.98
59391;BME280;53405;57.012;40.984;2023-02-18T09:06:15;99893.13;;;-5.88;80.92
59391;BME280;53405;57.012;40.984;2023-02-18T09:09:03;99882.34;;;-5.95;80.82
59391;BME280;53405;57.012;40.984;2023-02-18T09:11:50;99885.50;;;-5.90;81.30
59391;BME280;53405;57.012;40.984;2023-02-18T09:14:38;99883.72;;;-5.88;80.99
59391;BME280;53405;57.012;40.984;2023-02-18T09:17:26;99873.31;;;-5.85;81.15
59391;BME280;53405;57.012;40.984;2023-02-18T09:20:14;99857.22;;;-5.88;80.99
59391;BME280;53405;57.012;40.984;2023-02-18T09:23:01;99868.25;;;-5.86;80.58
59391;BME280;53405;57.012;40.984;2023-02-18T09:25:49;99826.81;;;-5.96;81.37
59391;BME280;53405;57.012;40.984;2023-02-18T09:28:37;99855.13;;;-5.80;81.11
59391;BME280;53405;57.012;40.984;2023-02-18T09:31:26;99843.72;;;-5.92;80.87
59391;BME280;53405;57.012;40.984;2023-02-18T09:34:13;99835.22;;;-5.92;81.72
59391;BME280;53405;57.012;40.984;2023-02-18T09:37:02;99832.13;;;-5.82;81.51
59391;BME280;53405;57.012;40.984;2023-02-18T09:39:49;99835.41;;;-5.79;81.99
59391;BME280;53405;57.012;40.984;2023-02-18T09:43:02;99832.84;;;-5.79;81.09
59391;BME280;53405;57.012;40.984;2023-02-18T09:45:52;99819.13;;;-5.78;81.32
59391;BME280;53405;57.012;40.984;2023-02-18T09:48:42;99828.59;;;-5.63;81.42
59391;BME280;53405;57.012;40.984;2023-02-18T09:51:31;99831.84;;;-5.59;81.68
59391;BME280;53405;57.012;40.984;2023-02-18T09:54:19;99817.50;;;-5.64;81.43
59391;BME280;53405;57.012;40.984;2023-02-18T09:57:25;99821.91;;;-5.66;81.91
59391;BME280;53405;57.012;40.984;2023-02-18T10:00:19;99812.13;;;-5.59;81.74
59391;BME280;53405;57.012;40.984;2023-02-18T10:03:24;99801.78;;;-5.57;81.56
59391;BME280;53405;57.012;40.984;2023-02-18T10:06:24;99800.81;;;-5.55;83.23
59391;BME280;53405;57.012;40.984;2023-02-18T10:09:23;99797.66;;;-5.44;81.47
59391;BME280;53405;57.012;40.984;2023-02-18T10:12:19;99784.09;;;-5.46;81.18
59391;BME280;53405;57.012;40.984;2023-02-18T10:15:17;99791.78;;;-5.46;81.67
59391;BME280;53405;57.012;40.984;2023-02-18T10:21:14;99784.22;;;-5.65;83.31
59391;BME280;53405;57.012;40.984;2023-02-18T10:24:31;99778.81;;;-5.43;81.68
59391;BME280;53405;57.012;40.984;2023-02-18T10:27:26;99768.53;;;-5.43;81.51
59391;BME280;53405;57.012;40.984;2023-02-18T10:33:31;99764.88;;;-5.55;81.90
59391;BME280;53405;57.012;40.984;2023-02-18T10:51:29;99744.13;;;-5.18;82.29
59391;BME280;53405;57.012;40.984;2023-02-18T10:54:17;99742.44;;;-5.19;81.82
59391;BME280;53405;57.012;40.984;2023-02-18T10:57:17;99745.59;;;-5.30;81.50
59391;BME280;53405;57.012;40.984;2023-02-18T11:06:02;99709.25;;;-5.54;83.88
59391;BME280;53405;57.012;40.984;2023-02-18T11:08:52;99733.09;;;-5.20;82.83
59391;BME280;53405;57.012;40.984;2023-02-18T11:11:41;99724.72;;;-5.24;82.27
59391;BME280;53405;57.012;40.984;2023-02-18T11:14:41;99705.00;;;-5.39;82.47
59391;BME280;53405;57.012;40.984;2023-02-18T11:17:30;99726.00;;;-5.31;82.80
59391;BME280;53405;57.012;40.984;2023-02-18T11:23:17;99716.78;;;-5.35;82.77
59391;BME280;53405;57.012;40.984;2023-02-18T11:26:12;99711.09;;;-5.40;83.35
59391;BME280;53405;57.012;40.984;2023-02-18T11:29:06;99713.88;;;-5.45;83.61
59391;BME280;53405;57.012;40.984;2023-02-18T11:31:59;99709.50;;;-5.43;85.13
59391;BME280;53405;57.012;40.984;2023-02-18T11:34:48;99697.31;;;-5.39;84.24
59391;BME280;53405;57.012;40.984;2023-02-18T11:37:37;99691.84;;;-5.49;83.58
59391;BME280;53405;57.012;40.984;2023-02-18T11:40:34;99686.00;;;-5.67;84.43
59391;BME280;53405;57.012;40.984;2023-02-18T11:43:26;99694.09;;;-5.75;84.63
59391;BME280;53405;57.012;40.984;2023-02-18T11:46:19;99688.88;;;-5.73;85.41
59391;BME280;53405;57.012;40.984;2023-02-18T11:49:20;99679.94;;;-5.66;85.54
59391;BME280;53405;57.012;40.984;2023-02-18T11:52:21;99687.88;;;-5.71;85.24
59391;BME280;53405;57.012;40.984;2023-02-18T11:55:21;99680.94;;;-5.69;86.18
59391;BME280;53405;57.012;40.984;2023-02-18T11:58:11;99671.91;;;-5.60;85.54
59391;BME280;53405;57.012;40.984;2023-02-18T12:01:02;99671.16;;;-5.62;85.85
59391;BME280;53405;57.012;40.984;2023-02-18T12:03:58;99663.88;;;-5.70;85.60
59391;BME280;53405;57.012;40.984;2023-02-18T12:13:25;99662.22;;;-5.71;86.87
59391;BME280;53405;57.012;40.984;2023-02-18T12:22:29;99649.66;;;-5.59;86.03
59391;BME280;53405;57.012;40.984;2023-02-18T12:28:37;99649.81;;;-5.47;85.23
59391;BME280;53405;57.012;40.984;2023-02-18T12:37:29;99645.81;;;-5.52;85.19
59391;BME280;53405;57.012;40.984;2023-02-18T12:49:45;99637.41;;;-5.54;85.11
59391;BME280;53405;57.012;40.984;2023-02-18T13:02:53;99621.19;;;-5.55;86.33
59391;BME280;53405;57.012;40.984;2023-02-18T13:09:34;99626.38;;;-5.72;85.61
59391;BME280;53405;57.012;40.984;2023-02-18T13:12:56;99620.75;;;-5.63;85.18
59391;BME280;53405;57.012;40.984;2023-02-18T13:19:23;99610.91;;;-5.71;85.75
59391;BME280;53405;57.012;40.984;2023-02-18T13:22:14;99617.03;;;-5.73;85.36
59391;BME280;53405;57.012;40.984;2023-02-18T13:25:11;99600.00;;;-5.90;85.71
59391;BME280;53405;57.012;40.984;2023-02-18T13:40:29;99593.72;;;-5.85;85.69
59391;BME280;53405;57.012;40.984;2023-02-18T13:46:16;99603.53;;;-5.93;85.70
59391;BME280;53405;57.012;40.984;2023-02-18T13:49:10;99605.47;;;-5.96;85.47
59391;BME280;53405;57.012;40.984;2023-02-18T13:52:02;99586.53;;;-6.10;84.56
59391;BME280;53405;57.012;40.984;2023-02-18T13:54:50;99546.41;;;-6.27;86.01
59391;BME280;53405;57.012;40.984;2023-02-18T13:57:38;99578.16;;;-6.13;85.18
59391;BME280;53405;57.012;40.984;2023-02-18T14:00:34;99588.09;;;-6.23;86.32
59391;BME280;53405;57.012;40.984;2023-02-18T14:06:25;99590.91;;;-6.12;88.50
59391;BME280;53405;57.012;40.984;2023-02-18T14:18:22;99573.03;;;-6.29;85.87
59391;BME280;53405;57.012;40.984;2023-02-18T14:21:20;99570.78;;;-6.36;86.20
59391;BME280;53405;57.012;40.984;2023-02-18T14:24:42;99568.22;;;-6.36;86.02
59391;BME280;53405;57.012;40.984;2023-02-18T14:27:36;99566.56;;;-6.52;85.61
59391;BME280;53405;57.012;40.984;2023-02-18T14:30:33;99553.38;;;-6.62;87.20
59391;BME280;53405;57.012;40.984;2023-02-18T14:33:34;99562.00;;;-6.63;86.64
59391;BME280;53405;57.012;40.984;2023-02-18T14:39:48;99552.22;;;-6.73;86.95
59391;BME280;53405;57.012;40.984;2023-02-18T14:43:15;99554.63;;;-6.69;86.05
59391;BME280;53405;57.012;40.984;2023-02-18T14:46:39;99549.56;;;-6.71;85.87
59391;BME280;53405;57.012;40.984;2023-02-18T14:52:44;99546.38;;;-6.59;85.82
59391;BME280;53405;57.012;40.984;2023-02-18T14:55:44;99546.84;;;-6.68;86.93
59391;BME280;53405;57.012;40.984;2023-02-18T14:58:36;99545.09;;;-6.67;85.85
59391;BME280;53405;57.012;40.984;2023-02-18T15:01:32;99523.47;;;-6.78;85.69
59391;BME280;53405;57.012;40.984;2023-02-18T15:04:24;99515.56;;;-6.91;85.98
59391;BME280;53405;57.012;40.984;2023-02-18T15:07:12;99521.59;;;-6.92;86.03
59391;BME280;53405;57.012;40.984;2023-02-18T15:09:59;99519.84;;;-6.91;86.12
59391;BME280;53405;57.012;40.984;2023-02-18T15:12:49;99531.28;;;-6.81;86.13
59391;BME280;53405;57.012;40.984;2023-02-18T15:15:38;99528.81;;;-6.82;86.58
59391;BME280;53405;57.012;40.984;2023-02-18T15:18:27;99531.00;;;-6.92;86.73
59391;BME280;53405;57.012;40.984;2023-02-18T15:24:18;99526.22;;;-6.98;86.98
59391;BME280;53405;57.012;40.984;2023-02-18T15:27:29;99522.66;;;-6.96;86.95
59391;BME280;53405;57.012;40.984;2023-02-18T15:30:28;99513.72;;;-7.04;86.87
59391;BME280;53405;57.012;40.984;2023-02-18T15:33:18;99522.38;;;-7.07;87.51
59391;BME280;53405;57.012;40.984;2023-02-18T15:36:12;99514.63;;;-7.05;87.61
59391;BME280;53405;57.012;40.984;2023-02-18T15:39:00;99493.63;;;-7.12;87.40
59391;BME280;53405;57.012;40.984;2023-02-18T15:42:00;99482.75;;;-7.17;87.40
59391;BME280;53405;57.012;40.984;2023-02-18T15:44:54;99503.00;;;-7.13;87.55
59391;BME280;53405;57.012;40.984;2023-02-18T15:47:43;99496.84;;;-7.09;87.91
59391;BME280;53405;57.012;40.984;2023-02-18T15:50:35;99488.94;;;-7.04;87.68
59391;BME280;53405;57.012;40.984;2023-02-18T15:53:24;99496.38;;;-6.99;87.40
59391;BME280;53405;57.012;40.984;2023-02-18T15:56:19;99498.72;;;-6.95;86.77
59391;BME280;53405;57.012;40.984;2023-02-18T15:59:32;99490.53;;;-7.01;86.79
59391;BME280;53405;57.012;40.984;2023-02-18T16:02:22;99486.66;;;-6.93;86.71
59391;BME280;53405;57.012;40.984;2023-02-18T16:05:13;99492.19;;;-6.84;87.79
59391;BME280;53405;57.012;40.984;2023-02-18T16:08:09;99483.53;;;-6.82;86.96
59391;BME280;53405;57.012;40.984;2023-02-18T16:11:06;99479.47;;;-6.86;86.47
59391;BME280;53405;57.012;40.984;2023-02-18T16:13:55;99478.00;;;-6.90;86.46
59391;BME280;53405;57.012;40.984;2023-02-18T16:17:03;99465.34;;;-6.93;86.34
59391;BME280;53405;57.012;40.984;2023-02-18T16:20:39;99467.28;;;-6.81;86.94
59391;BME280;53405;57.012;40.984;2023-02-18T16:23:54;99462.72;;;-6.76;86.66
59391;BME280;53405;57.012;40.984;2023-02-18T16:26:45;99465.94;;;-6.72;86.21
59391;BME280;53405;57.012;40.984;2023-02-18T16:29:39;99453.03;;;-6.86;86.46
59391;BME280;53405;57.012;40.984;2023-02-18T16:32:27;99451.69;;;-6.94;86.60
59391;BME280;53405;57.012;40.984;2023-02-18T16:35:15;99457.09;;;-6.82;86.91
59391;BME280;53405;57.012;40.984;2023-02-18T16:38:03;99437.84;;;-6.90;86.92
59391;BME280;53405;57.012;40.984;2023-02-18T16:40:53;99447.44;;;-6.77;86.61
59391;BME280;53405;57.012;40.984;2023-02-18T16:43:41;99452.41;;;-6.74;86.48
59391;BME280;53405;57.012;40.984;2023-02-18T16:46:29;99459.19;;;-6.73;86.84
59391;BME280;53405;57.012;40.984;2023-02-18T16:49:17;99445.78;;;-6.78;86.81
59391;BME280;53405;57.012;40.984;2023-02-18T16:52:08;99450.16;;;-6.80;86.88
59391;BME280;53405;57.012;40.984;2023-02-18T16:54:57;99448.66;;;-6.84;87.23
59391;BME280;53405;57.012;40.984;2023-02-18T16:57:45;99444.31;;;-6.82;87.71
59391;BME280;53405;57.012;40.984;2023-02-18T17:00:34;99448.16;;;-6.91;87.37
59391;BME280;53405;57.012;40.984;2023-02-18T17:03:21;99446.50;;;-6.92;87.64
59391;BME280;53405;57.012;40.984;2023-02-18T17:06:09;99431.47;;;-6.98;87.66
59391;BME280;53405;57.012;40.984;2023-02-18T17:08:57;99432.31;;;-6.98;88.14
59391;BME280;53405;57.012;40.984;2023-02-18T17:11:47;99411.31;;;-7.04;88.12
59391;BME280;53405;57.012;40.984;2023-02-18T17:14:35;99436.09;;;-6.89;88.29
59391;BME280;53405;57.012;40.984;2023-02-18T17:17:23;99408.53;;;-7.00;88.17
59391;BME280;53405;57.012;40.984;2023-02-18T17:20:11;99409.56;;;-7.04;88.36
59391;BME280;53405;57.012;40.984;2023-02-18T17:23:00;99428.84;;;-6.81;88.08
59391;BME280;53405;57.012;40.984;2023-02-18T17:25:50;99422.97;;;-6.83;88.02
59391;BME280;53405;57.012;40.984;2023-02-18T17:28:37;99407.59;;;-6.99;87.25
59391;BME280;53405;57.012;40.984;2023-02-18T17:31:27;99414.22;;;-6.95;87.61
59391;BME280;53405;57.012;40.984;2023-02-18T17:34:25;99427.28;;;-6.83;87.92
59391;BME280;53405;57.012;40.984;2023-02-18T17:37:13;99415.38;;;-6.84;87.59
59391;BME280;53405;57.012;40.984;2023-02-18T17:40:01;99423.41;;;-6.75;87.22